Time;durP1;ratioP1;P1;durP2;ratioP2;P2;SDS_P1;SDS_P2;PMS_P1;PMS_P2;Temp;Humidity;BMP_temperature;BMP_pressure;BME280_temperature;BME280_humidity;BME280_pressure;Samples;Min_cycle;Max_cycle;Signal;HPM_P1;HPM_P2
2022/10/02 00:02:47;;;;;;;19.05;11.02;;;;;;;28.58;59.55;100779.19;5016454;28;70802;-40
2022/10/02 00:05:29;;;;;;;18.52;10.45;;;;;;;28.67;59.54;100773.41;4973664;28;66947;-42
2022/10/02 00:08:18;;;;;;;12.25;10.98;;;;;;;28.73;59.98;100785.25;5016307;28;69690;-40
2022/10/02 00:11:15;;;;;;;11.85;10.10;;;;;;;28.74;60.24;100787.72;5015339;28;66167;-42
2022/10/02 00:13:59;;;;;;;18.35;10.20;;;;;;;28.76;60.64;100787.53;4996889;28;68785;-41
2022/10/02 00:16:40;;;;;;;24.08;11.07;;;;;;;28.82;60.98;100797.47;5012527;28;66718;-41
2022/10/02 00:19:17;;;;;;;17.20;11.85;;;;;;;28.86;61.41;100792.47;5007575;28;69913;-42
2022/10/02 00:21:59;;;;;;;19.38;10.82;;;;;;;28.88;61.03;100790.41;4984729;28;66882;-42
2022/10/02 00:25:01;;;;;;;18.08;11.65;;;;;;;28.88;61.71;100801.22;5012808;28;71759;-41
2022/10/02 00:27:58;;;;;;;14.13;11.43;;;;;;;28.91;61.57;100804.31;4992630;28;67087;-40
2022/10/02 00:30:40;;;;;;;17.45;11.75;;;;;;;28.93;61.80;100804.94;5013110;28;69828;-42
2022/10/02 00:33:38;;;;;;;14.10;11.52;;;;;;;28.02;62.24;100673.31;5016461;28;66064;-41
2022/10/02 00:36:37;;;;;;;18.10;11.38;;;;;;;28.90;62.71;100821.56;5015236;28;69645;-41
2022/10/02 00:39:57;;;;;;;21.67;12.88;;;;;;;28.87;64.57;100827.38;5014838;28;66194;-43
2022/10/02 00:42:46;;;;;;;27.80;16.02;;;;;;;28.56;67.19;100762.41;4950981;28;69636;-42
2022/10/02 00:45:51;;;;;;;21.60;19.10;;;;;;;28.51;69.62;100758.44;4947679;28;66760;-42
2022/10/02 00:48:34;;;;;;;35.10;20.40;;;;;;;29.09;70.38;100848.81;5007732;28;70029;-42
2022/10/02 00:51:13;;;;;;;32.67;21.40;;;;;;;29.19;71.16;100851.91;5020973;28;67164;-42
2022/10/02 00:54:05;;;;;;;29.30;21.02;;;;;;;28.95;72.07;100819.06;5020559;28;70764;-41
2022/10/02 00:56:43;;;;;;;25.90;19.47;;;;;;;29.26;72.70;100863.53;5012146;28;66928;-42
2022/10/02 00:59:45;;;;;;;27.58;19.75;;;;;;;29.20;73.33;100869.78;5011652;28;70562;-41
2022/10/02 01:02:35;;;;;;;27.63;19.15;;;;;;;29.28;73.15;100883.09;5015174;28;67250;-41
2022/10/02 01:05:09;;;;;;;26.95;18.35;;;;;;;29.28;74.05;100880.38;5014988;28;70589;-41
2022/10/02 01:07:45;;;;;;;22.27;16.00;;;;;;;29.30;73.20;100870.19;5016293;28;66958;-42
2022/10/02 01:10:21;;;;;;;29.92;17.55;;;;;;;29.33;74.04;100875.16;5017722;28;70791;-41
2022/10/02 01:12:55;;;;;;;27.00;15.98;;;;;;;29.25;74.31;100858.34;5011291;28;66352;-43
2022/10/02 01:15:32;;;;;;;21.17;15.23;;;;;;;28.85;74.48;100802.47;5008854;28;70991;-43
2022/10/02 01:18:06;;;;;;;19.77;14.80;;;;;;;29.13;75.46;100847.34;5019495;28;66085;-43
2022/10/02 01:20:46;;;;;;;32.05;16.77;;;;;;;29.29;76.47;100889.31;4999948;28;70011;-40
2022/10/02 01:23:21;;;;;;;27.05;15.55;;;;;;;29.38;76.45;100899.69;5016161;28;67027;-42
2022/10/02 01:25:53;;;;;;;18.88;15.73;;;;;;;29.35;77.37;100905.50;5020023;28;70013;-41
2022/10/02 01:28:27;;;;;;;20.30;15.13;;;;;;;29.44;75.24;100899.88;5015678;28;66208;-42
2022/10/02 01:31:06;;;;;;;21.30;15.10;;;;;;;29.34;76.95;100886.81;5019844;28;70179;-41
2022/10/02 01:33:41;;;;;;;19.70;13.95;;;;;;;29.34;76.15;100897.63;5008023;28;67138;-41
2022/10/02 01:36:15;;;;;;;19.85;13.07;;;;;;;28.58;77.26;100768.41;5019623;28;70075;-41
2022/10/02 01:38:50;;;;;;;13.52;12.13;;;;;;;29.42;76.77;100888.44;5020582;28;67246;-42
2022/10/02 01:41:23;;;;;;;29.42;13.15;;;;;;;29.42;78.01;100886.59;5015586;28;70740;-42
2022/10/02 01:44:00;;;;;;;69.70;18.23;;;;;;;29.42;77.28;100888.44;5015738;28;66901;-41
2022/10/02 01:47:04;;;;;;;39.72;15.45;;;;;;;29.45;78.78;100907.78;5007150;28;70531;-42
2022/10/02 01:49:46;;;;;;;22.50;12.95;;;;;;;29.59;78.02;100905.91;5018979;28;67630;-41
2022/10/02 01:52:33;;;;;;;68.82;14.75;;;;;;;29.62;77.93;100902.78;5019552;28;70845;-40
2022/10/02 01:55:15;;;;;;;38.17;12.35;;;;;;;29.61;78.39;100898.38;5026859;28;66915;-41
2022/10/02 01:58:02;;;;;;;40.47;12.53;;;;;;;29.62;78.40;100900.06;5018242;28;70806;-41
2022/10/02 02:00:55;;;;;;;104.07;20.30;;;;;;;29.12;78.32;100824.09;5005005;28;66896;-41
2022/10/02 02:03:53;;;;;;;150.38;21.73;;;;;;;29.64;77.49;100898.00;5018945;28;70743;-41
2022/10/02 02:07:08;;;;;;;119.80;20.58;;;;;;;29.68;77.08;100901.97;5007248;28;66409;-40
2022/10/02 02:10:03;;;;;;;141.68;21.52;;;;;;;29.74;76.88;100901.09;5016648;28;70323;-41
2022/10/02 02:12:55;;;;;;;58.83;15.52;;;;;;;29.72;77.50;100900.47;5015083;28;66985;-40
2022/10/02 02:15:36;;;;;;;42.00;12.63;;;;;;;29.31;76.55;100817.81;5008525;28;71060;-41
2022/10/02 02:18:08;;;;;;;27.38;11.52;;;;;;;29.81;77.07;100899.22;5015219;28;65951;-43
2022/10/02 02:20:49;;;;;;;18.08;9.10;;;;;;;29.86;76.28;100897.75;5012571;28;70443;-42
2022/10/02 02:23:28;;;;;;;13.65;8.13;;;;;;;29.45;77.10;100833.97;5011682;28;66844;-41
2022/10/02 02:26:11;;;;;;;19.85;8.57;;;;;;;29.90;76.85;100899.00;5010308;28;70599;-41
2022/10/02 02:28:55;;;;;;;22.85;8.07;;;;;;;29.96;76.43;100898.97;5010280;28;67095;-41
2022/10/02 02:31:44;;;;;;;11.43;7.50;;;;;;;29.98;75.60;100896.88;4981218;28;71124;-41
2022/10/02 02:34:22;;;;;;;7.35;6.85;;;;;;;29.16;75.61;100738.88;4992237;28;66108;-40
2022/10/02 02:37:00;;;;;;;10.82;6.07;;;;;;;29.55;75.13;100807.34;5012541;28;70551;-41
2022/10/02 02:39:51;;;;;;;9.32;7.70;;;;;;;29.48;75.41;100806.56;5009382;28;66895;-41
2022/10/02 02:42:31;;;;;;;12.40;8.35;;;;;;;30.00;75.45;100864.19;5013130;28;70734;-40
2022/10/02 02:45:13;;;;;;;40.10;10.55;;;;;;;30.12;75.53;100873.31;5016976;28;66634;-41
2022/10/02 02:47:50;;;;;;;16.92;8.38;;;;;;;29.92;75.58;100845.50;5011399;28;70143;-41
2022/10/02 02:50:42;;;;;;;25.88;9.23;;;;;;;30.11;75.48;100885.16;5011832;28;66828;-41
2022/10/02 02:53:24;;;;;;;18.37;8.50;;;;;;;29.77;75.48;100821.44;5008268;28;69349;-40
2022/10/02 02:56:00;;;;;;;;;;;;;;;29.88;76.52;100882.13;5011480;28;66507;-41
2022/10/02 02:58:34;;;;;;;14.93;7.75;;;;;;;30.14;75.83;100882.00;5013663;28;70770;-41
2022/10/02 03:01:07;;;;;;;18.63;8.65;;;;;;;30.15;75.56;100866.63;5017541;28;67421;-40
2022/10/02 03:03:40;;;;;;;27.83;9.40;;;;;;;30.19;75.56;100867.84;5014839;28;70786;-40
2022/10/02 03:06:16;;;;;;;19.63;10.32;;;;;;;30.23;75.96;100869.94;5012564;28;65986;-41
2022/10/02 03:08:50;;;;;;;43.70;11.05;;;;;;;30.25;75.13;100867.84;5018426;28;70571;-39
2022/10/02 03:11:28;;;;;;;45.50;10.07;;;;;;;30.25;75.83;100859.72;5010751;28;66904;-41
2022/10/02 03:14:28;;;;;;;34.92;11.75;;;;;;;30.21;75.73;100863.06;5016291;28;71858;-40
2022/10/02 03:17:20;;;;;;;30.92;10.60;;;;;;;30.21;75.88;100844.94;5017093;28;66731;-40
2022/10/02 03:19:59;;;;;;;11.85;10.15;;;;;;;30.32;75.73;100861.59;5016401;28;70501;-40
2022/10/02 03:22:51;;;;;;;16.63;11.25;;;;;;;30.13;76.05;100826.25;5009740;28;67148;-40
2022/10/02 03:25:37;;;;;;;17.38;10.20;;;;;;;30.34;75.49;100851.34;5014306;28;69817;-41
2022/10/02 03:28:23;;;;;;;20.75;12.85;;;;;;;30.35;75.22;100847.63;4998272;28;67315;-41
2022/10/02 03:31:19;;;;;;;15.98;11.77;;;;;;;30.38;75.16;100845.28;5012551;28;70682;-42
2022/10/02 03:33:53;;;;;;;17.95;9.38;;;;;;;30.20;75.81;100816.25;5019700;28;66846;-40
2022/10/02 03:36:26;;;;;;;16.75;10.40;;;;;;;30.38;75.82;100836.34;5019178;28;70192;-41
2022/10/02 03:39:02;;;;;;;15.57;10.55;;;;;;;30.10;76.69;100786.13;5017999;28;65877;-41
2022/10/02 03:41:54;;;;;;;15.45;10.18;;;;;;;30.45;75.00;100829.84;5011161;28;70479;-40
2022/10/02 03:44:27;;;;;;;23.38;9.43;;;;;;;30.40;77.18;100826.16;5020599;28;66791;-40
2022/10/02 03:46:59;;;;;;;17.80;9.02;;;;;;;30.40;77.54;100826.16;5015316;28;70802;-42
2022/10/02 03:49:32;;;;;;;12.60;7.93;;;;;;;30.43;77.86;100820.28;5018539;28;66531;-41
2022/10/02 03:52:05;;;;;;;11.75;8.27;;;;;;;30.46;78.08;100820.66;5017217;28;69996;-41
2022/10/02 03:54:37;;;;;;;24.25;8.70;;;;;;;30.49;78.04;100819.41;5014823;28;66989;-39
2022/10/02 03:57:17;;;;;;;12.02;8.32;;;;;;;30.15;76.61;100764.66;5012059;28;69782;-39
2022/10/02 03:59:55;;;;;;;17.45;8.60;;;;;;;30.41;76.20;100811.56;5018706;28;66401;-39
2022/10/02 04:03:02;;;;;;;15.55;8.25;;;;;;;29.95;73.96;100758.53;5020167;28;70953;-40
2022/10/02 04:05:54;;;;;;;30.73;8.60;;;;;;;29.87;73.26;100751.50;5021349;28;67677;-39
2022/10/02 04:08:57;;;;;;;14.90;7.43;;;;;;;29.81;71.94;100742.41;5000514;28;70808;-43
2022/10/02 04:11:48;;;;;;;10.55;7.22;;;;;;;30.01;71.19;100787.44;5007751;28;67060;-42
2022/10/02 04:14:27;;;;;;;9.43;5.68;;;;;;;30.09;70.63;100792.59;5003973;28;71076;-45
2022/10/02 04:17:07;;;;;;;10.15;7.28;;;;;;;30.06;68.59;100793.00;5010438;28;67593;-43
2022/10/02 04:19:45;;;;;;;8.05;6.93;;;;;;;30.02;69.32;100797.19;5011212;28;70615;-42
2022/10/02 04:22:44;;;;;;;7.82;6.97;;;;;;;29.89;68.58;100783.72;5012055;28;66379;-41
2022/10/02 04:25:24;;;;;;;7.88;6.18;;;;;;;29.05;67.60;100634.22;5014976;28;70208;-43
2022/10/02 04:28:13;;;;;;;12.38;6.40;;;;;;;29.86;68.57;100778.75;5009506;28;65135;-43
2022/10/02 04:30:46;;;;;;;12.02;6.82;;;;;;;29.88;69.39;100755.03;5016263;28;70277;-43
2022/10/02 04:33:21;;;;;;;10.27;6.78;;;;;;;29.76;69.67;100727.88;5005935;28;66997;-40
2022/10/02 04:36:05;;;;;;;11.63;7.53;;;;;;;29.97;68.59;100759.16;5018135;28;70635;-43
2022/10/02 04:38:57;;;;;;;7.97;6.32;;;;;;;29.87;67.35;100758.81;5004604;28;65996;-41
2022/10/02 04:41:39;;;;;;;8.93;6.20;;;;;;;29.88;65.68;100757.75;5011729;28;70454;-41
2022/10/02 04:44:30;;;;;;;10.50;5.35;;;;;;;29.75;64.61;100754.06;5013657;28;67068;-41
2022/10/02 04:47:09;;;;;;;7.07;5.78;;;;;;;29.78;63.21;100756.34;5017350;28;71314;-41
2022/10/02 04:50:06;;;;;;;6.45;5.85;;;;;;;29.76;62.12;100749.50;5016317;28;66952;-42
2022/10/02 04:53:13;;;;;;;5.00;4.60;;;;;;;29.45;61.77;100713.22;5016188;28;70976;-42
2022/10/02 04:56:17;;;;;;;6.05;4.78;;;;;;;29.07;60.58;100669.94;5009033;28;66526;-42
2022/10/02 04:58:50;;;;;;;11.70;4.80;;;;;;;29.62;61.20;100738.72;5009325;28;70720;-41
2022/10/02 05:01:40;;;;;;;5.07;4.57;;;;;;;29.51;61.00;100731.28;5013726;28;65927;-47
2022/10/02 05:04:34;;;;;;;10.40;4.68;;;;;;;29.47;60.31;100721.09;5013521;28;70884;-41
2022/10/02 05:07:34;;;;;;;5.03;4.60;;;;;;;29.08;59.65;100642.69;5014403;28;67317;-42
2022/10/02 05:10:25;;;;;;;5.15;4.65;;;;;;;29.50;59.32;100710.69;5017202;28;71338;-42
2022/10/02 05:13:06;;;;;;;4.50;4.10;;;;;;;29.56;58.51;100700.88;5011923;28;67432;-41
2022/10/02 05:15:57;;;;;;;5.85;3.20;;;;;;;29.55;59.75;100704.63;5012664;28;70659;-43
2022/10/02 05:18:52;;;;;;;5.78;3.95;;;;;;;29.43;58.02;100687.47;5014654;28;66340;-43
2022/10/02 05:21:52;;;;;;;5.20;4.00;;;;;;;29.44;58.51;100683.69;5017795;28;70203;-41
2022/10/02 05:24:40;;;;;;;5.10;3.42;;;;;;;29.52;58.57;100683.44;5017488;28;66983;-41
2022/10/02 05:27:32;;;;;;;3.75;3.45;;;;;;;29.50;61.41;100666.63;5018002;28;70226;-43
2022/10/02 05:30:22;;;;;;;11.73;3.47;;;;;;;29.38;60.53;100667.31;5019974;28;66919;-42
2022/10/02 05:33:25;;;;;;;4.35;3.58;;;;;;;29.52;60.21;100667.25;5017257;28;70153;-43
2022/10/02 05:36:34;;;;;;;5.28;3.55;;;;;;;29.40;59.69;100670.63;5007960;28;67050;-41
2022/10/02 05:39:26;;;;;;;3.70;3.13;;;;;;;29.27;59.23;100643.66;5013611;28;70257;-41
2022/10/02 05:42:17;;;;;;;4.60;3.45;;;;;;;29.38;59.60;100663.78;5012905;28;66290;-40
2022/10/02 05:45:21;;;;;;;3.42;3.13;;;;;;;29.48;59.01;100660.63;5007924;28;70582;-41
2022/10/02 05:48:11;;;;;;;9.05;2.65;;;;;;;29.51;59.63;100649.38;5010558;28;43056;-41
2022/10/02 05:50:48;;;;;;;15.35;3.00;;;;;;;29.54;59.29;100651.66;5008704;28;70779;-42
2022/10/02 05:53:58;;;;;;;3.05;2.80;;;;;;;29.55;58.97;100628.97;5012576;28;67062;-41
2022/10/02 05:56:43;;;;;;;5.20;3.20;;;;;;;29.02;58.64;100543.63;4938785;28;70209;-41
2022/10/02 05:59:41;;;;;;;2.60;2.30;;;;;;;29.58;58.16;100618.53;4939339;28;65966;-41
2022/10/02 06:02:50;;;;;;;4.60;2.97;;;;;;;29.48;58.24;100601.16;4998138;28;71264;-41
2022/10/02 06:05:38;;;;;;;2.60;2.25;;;;;;;29.53;57.20;100604.03;5003187;28;66525;-42
2022/10/02 06:08:15;;;;;;;3.40;2.30;;;;;;;28.70;57.29;100453.66;5018174;28;70501;-42
2022/10/02 06:10:58;;;;;;;2.22;2.03;;;;;;;29.54;57.02;100589.47;5002113;28;66735;-41
2022/10/02 06:13:45;;;;;;;4.40;2.53;;;;;;;29.49;56.24;100582.00;5017679;28;70820;-41
2022/10/02 06:16:27;;;;;;;4.22;1.70;;;;;;;29.55;56.31;100580.31;5016129;28;67666;-40
2022/10/02 06:19:11;;;;;;;2.20;1.75;;;;;;;29.26;57.13;100527.72;5014362;28;70591;-42
2022/10/02 06:21:52;;;;;;;2.47;2.25;;;;;;;29.62;56.36;100575.72;5016894;28;66381;-42
2022/10/02 06:24:41;;;;;;;2.33;2.13;;;;;;;29.39;56.53;100539.28;5017903;28;71107;-40
2022/10/02 06:27:43;;;;;;;2.00;1.80;;;;;;;29.51;56.27;100562.91;5018185;28;66315;-41
2022/10/02 06:30:18;;;;;;;2.20;2.00;;;;;;;29.50;55.37;100528.78;5019164;28;70908;-41
2022/10/02 06:32:58;;;;;;;2.08;1.98;;;;;;;29.64;55.14;100540.38;5016849;28;66842;-40
2022/10/02 06:35:42;;;;;;;4.03;1.55;;;;;;;29.64;54.69;100534.97;5024019;28;69179;-40
2022/10/02 06:38:34;;;;;;;1.75;1.65;;;;;;;29.08;54.87;100450.94;5016110;28;66589;-40
2022/10/02 06:41:33;;;;;;;1.93;1.83;;;;;;;29.57;54.18;100533.09;5017108;28;70801;-42
2022/10/02 06:44:06;;;;;;;1.80;1.70;;;;;;;29.71;54.99;100530.34;5019078;28;66323;-41
2022/10/02 06:47:02;;;;;;;1.50;1.40;;;;;;;29.61;53.66;100530.78;5017751;28;70133;-40
2022/10/02 06:49:50;;;;;;;2.20;1.75;;;;;;;29.72;52.97;100519.28;5019192;28;66957;-41
2022/10/02 06:52:56;;;;;;;2.53;2.33;;;;;;;29.68;53.24;100515.38;5017937;28;71196;-41
2022/10/02 06:55:48;;;;;;;3.42;1.70;;;;;;;29.75;52.57;100521.53;5015489;28;66526;-42
2022/10/02 06:58:42;;;;;;;1.42;1.25;;;;;;;29.73;52.41;100506.63;5018780;28;71318;-41
2022/10/02 07:01:29;;;;;;;3.63;1.63;;;;;;;29.83;52.28;100496.94;5011213;28;66300;-43
2022/10/02 07:04:41;;;;;;;1.75;1.23;;;;;;;29.83;52.58;100496.09;5014123;28;70421;-41
2022/10/02 07:07:21;;;;;;;3.78;1.60;;;;;;;29.42;52.66;100407.47;4998663;28;66964;-41
2022/10/02 07:10:17;;;;;;;1.50;1.40;;;;;;;29.94;52.19;100492.66;5005218;28;71257;-42
2022/10/02 07:13:01;;;;;;;1.83;1.40;;;;;;;29.98;51.75;100498.47;5011098;28;67254;-41
2022/10/02 07:15:55;;;;;;;2.25;2.05;;;;;;;30.02;51.70;100494.25;5005743;28;70906;-42
2022/10/02 07:18:49;;;;;;;2.75;1.40;;;;;;;29.98;51.46;100496.59;4993237;28;66606;-42
2022/10/02 07:21:43;;;;;;;2.35;1.23;;;;;;;30.08;51.87;100493.38;4991291;28;71089;-41
2022/10/02 07:24:47;;;;;;;2.28;1.30;;;;;;;30.02;51.12;100496.97;5007364;28;67494;-42
2022/10/02 07:27:54;;;;;;;1.67;1.25;;;;;;;30.08;51.19;100487.94;4998428;28;70533;-42
2022/10/02 07:30:36;;;;;;;1.20;1.02;;;;;;;30.05;50.77;100469.47;5006924;28;65829;-42
2022/10/02 07:33:25;;;;;;;2.85;1.13;;;;;;;30.18;50.65;100493.69;5014960;28;70928;-42
2022/10/02 07:36:26;;;;;;;4.15;0.95;;;;;;;29.80;50.80;100412.75;5021842;28;67112;-41
2022/10/02 07:39:24;;;;;;;2.42;1.00;;;;;;;30.24;50.78;100465.75;5014646;28;70788;-42
2022/10/02 07:42:29;;;;;;;1.77;1.13;;;;;;;30.15;50.53;100461.66;5018755;28;66130;-42
2022/10/02 07:45:48;;;;;;;2.00;1.00;;;;;;;30.24;50.63;100465.75;4981442;28;70126;-42
2022/10/02 07:48:43;;;;;;;1.42;1.33;;;;;;;30.10;50.25;100430.94;4984453;28;66964;-43
2022/10/02 07:54:34;;;;;;;0.75;0.73;;;;;;;30.34;49.81;100475.22;5017915;28;66286;-43
2022/10/02 07:57:29;;;;;;;5.53;0.90;;;;;;;30.25;51.59;100478.22;5014012;28;70614;-41
2022/10/02 08:00:16;;;;;;;9.63;0.90;;;;;;;30.19;50.69;100452.03;5011666;28;67012;-42
2022/10/02 08:02:59;;;;;;;3.60;0.93;;;;;;;29.93;51.43;100414.50;4992517;28;70304;-42
2022/10/02 08:05:43;;;;;;;2.67;1.45;;;;;;;29.91;51.21;100411.19;5012945;28;66019;-41
2022/10/02 08:09:02;;;;;;;1.50;1.00;;;;;;;30.23;51.51;100474.94;5005059;28;71279;-41
2022/10/02 08:11:44;;;;;;;4.55;0.90;;;;;;;29.95;50.09;100413.22;4958607;28;67072;-40
2022/10/02 08:14:23;;;;;;;2.10;0.85;;;;;;;29.83;50.27;100399.59;4976584;28;70799;-44
2022/10/02 08:17:01;;;;;;;2.33;1.00;;;;;;;30.37;50.16;100485.56;4975299;28;66288;-41
2022/10/02 08:19:34;;;;;;;1.90;1.00;;;;;;;30.40;50.60;100490.56;5012034;28;70626;-41
2022/10/02 08:22:42;;;;;;;1.83;0.80;;;;;;;30.19;50.32;100460.16;5007620;28;66982;-41
2022/10/02 08:25:42;;;;;;;6.25;0.90;;;;;;;30.30;49.70;100499.19;5010314;28;69983;-41
2022/10/02 08:28:41;;;;;;;10.10;1.00;;;;;;;30.35;50.56;100503.94;5017069;28;66248;-39
2022/10/02 08:31:14;;;;;;;8.02;1.20;;;;;;;30.32;50.08;100488.16;4970061;28;70611;-40
2022/10/02 08:33:47;;;;;;;2.38;0.82;;;;;;;30.33;50.39;100490.63;5020659;28;67002;-40
2022/10/02 08:36:43;;;;;;;2.92;1.45;;;;;;;30.34;49.97;100491.44;5017747;28;70848;-41
2022/10/02 08:39:23;;;;;;;2.42;0.85;;;;;;;30.33;49.89;100484.38;5016370;28;67325;-41
2022/10/02 08:42:28;;;;;;;6.43;1.30;;;;;;;30.28;49.62;100483.19;5011552;28;70721;-40
2022/10/02 08:45:32;;;;;;;4.05;1.30;;;;;;;29.79;49.38;100411.91;5016626;28;66481;-41
2022/10/02 08:48:55;;;;;;;5.63;1.63;;;;;;;30.24;49.53;100487.41;5021124;28;70744;-40
2022/10/02 08:52:00;;;;;;;8.00;1.83;;;;;;;30.12;49.17;100478.34;4988712;28;66559;-41
2022/10/02 08:54:46;;;;;;;4.30;1.27;;;;;;;30.00;49.49;100463.91;5014077;28;70217;-40
2022/10/02 08:57:48;;;;;;;3.90;1.42;;;;;;;29.80;48.72;100448.72;5006633;28;65830;-41
2022/10/02 09:00:24;;;;;;;3.90;1.35;;;;;;;30.32;48.89;100532.28;5012856;28;70304;-40
2022/10/02 09:03:28;;;;;;;5.72;1.27;;;;;;;29.80;49.46;100475.75;5008066;28;67233;-41
2022/10/02 09:06:24;;;;;;;8.40;1.80;;;;;;;29.79;48.27;100452.47;4990137;28;70896;-41
2022/10/02 09:09:17;;;;;;;2.17;1.05;;;;;;;30.21;48.77;100514.88;5010588;28;66964;-41
2022/10/02 09:12:26;;;;;;;2.10;1.20;;;;;;;30.17;48.87;100519.09;4992347;28;70739;-40
2022/10/02 09:15:38;;;;;;;1.25;1.00;;;;;;;29.57;48.25;100427.69;5016126;28;67116;-40
2022/10/02 09:18:37;;;;;;;1.38;1.00;;;;;;;30.19;48.32;100538.59;4994045;28;70493;-41
2022/10/02 09:21:53;;;;;;;1.95;1.10;;;;;;;30.08;49.04;100541.22;5014945;28;66737;-41
2022/10/02 09:24:49;;;;;;;9.40;1.42;;;;;;;30.21;48.21;100541.09;5006587;28;70582;-41
2022/10/02 09:27:41;;;;;;;2.08;1.10;;;;;;;30.02;48.64;100537.53;5007413;28;66804;-43
2022/10/02 09:30:16;;;;;;;1.83;1.00;;;;;;;30.20;48.84;100540.28;5014530;28;70134;-42
2022/10/02 09:33:07;;;;;;;1.75;1.15;;;;;;;30.18;48.50;100526.16;5010647;28;66217;-45
2022/10/02 09:35:54;;;;;;;6.80;1.48;;;;;;;30.26;49.84;100516.94;5011618;28;70862;-43
2022/10/02 09:38:50;;;;;;;3.10;1.33;;;;;;;30.28;51.06;100515.66;5012940;28;66712;-42
2022/10/02 09:41:51;;;;;;;3.60;1.50;;;;;;;30.36;52.15;100516.41;5014936;28;69941;-41
2022/10/02 09:44:59;;;;;;;10.85;2.97;;;;;;;30.44;56.80;100518.81;5018189;28;66857;-43
2022/10/02 09:47:34;;;;;;;16.10;2.33;;;;;;;30.61;59.76;100524.44;5010303;28;70215;-43
2022/10/02 09:50:24;;;;;;;9.95;2.33;;;;;;;30.70;61.40;100523.06;5014116;28;66404;-42
2022/10/02 09:53:12;;;;;;;10.88;2.90;;;;;;;30.73;63.57;100539.72;5002086;28;70783;-43
2022/10/02 09:55:53;;;;;;;8.65;3.42;;;;;;;30.83;64.01;100549.19;5018473;28;66771;-43
2022/10/02 09:58:47;;;;;;;17.50;3.13;;;;;;;30.71;64.99;100538.28;5009567;28;70046;-42
2022/10/02 10:01:58;;;;;;;14.02;3.50;;;;;;;30.89;66.14;100569.94;5010393;28;66283;-41
2022/10/02 10:04:58;;;;;;;7.90;4.13;;;;;;;30.91;66.50;100575.97;5010749;28;70199;-42
2022/10/02 10:07:51;;;;;;;10.93;3.92;;;;;;;30.53;66.63;100517.44;5013419;28;66255;-42
2022/10/02 10:10:48;;;;;;;6.60;3.33;;;;;;;31.05;66.54;100585.56;5015789;28;70011;-42
2022/10/02 10:13:32;;;;;;;7.68;3.58;;;;;;;31.05;67.33;100591.00;5010393;28;66982;-43
2022/10/02 10:16:37;;;;;;;7.78;3.78;;;;;;;30.58;68.17;100514.88;5010165;28;70058;-41
2022/10/02 10:19:44;;;;;;;5.88;2.67;;;;;;;31.05;68.51;100596.41;5010507;28;66255;-42
2022/10/02 10:22:37;;;;;;;4.15;2.78;;;;;;;31.01;69.27;100597.94;4993463;28;70294;-44
2022/10/02 10:25:41;;;;;;;12.05;3.50;;;;;;;31.03;69.94;100593.09;5017492;28;67696;-42
2022/10/02 10:28:36;;;;;;;11.02;3.45;;;;;;;31.10;69.62;100599.25;5017945;28;71053;-42
2022/10/02 10:31:20;;;;;;;5.00;3.05;;;;;;;31.04;69.49;100600.19;5016564;28;67032;-43
2022/10/02 10:34:29;;;;;;;3.97;3.17;;;;;;;31.01;69.98;100595.22;5018894;28;69902;-43
2022/10/02 10:40:52;;;;;;;5.80;3.03;;;;;;;31.00;70.13;100598.16;5013802;28;70077;-42
2022/10/02 10:44:01;;;;;;;7.05;3.65;;;;;;;30.98;70.63;100598.38;5012970;28;66708;-42
2022/10/02 10:47:09;;;;;;;9.13;3.80;;;;;;;30.67;70.47;100546.03;5011335;28;70976;-42
2022/10/02 10:50:01;;;;;;;4.70;3.40;;;;;;;30.92;70.38;100585.72;5010329;28;66452;-43
2022/10/02 10:52:53;;;;;;;3.10;2.80;;;;;;;30.87;71.02;100599.13;5010317;28;70304;-44
2022/10/02 10:55:44;;;;;;;4.72;3.38;;;;;;;31.03;70.18;100606.63;5013058;28;66938;-43
2022/10/02 10:58:35;;;;;;;5.47;3.45;;;;;;;31.01;70.44;100622.31;4992195;28;71074;-43
2022/10/02 11:01:19;;;;;;;7.13;4.00;;;;;;;30.95;70.54;100617.78;5005546;28;66825;-43
2022/10/02 11:04:25;;;;;;;5.57;2.83;;;;;;;30.91;71.11;100635.56;4982011;28;70715;-42
2022/10/02 11:07:22;;;;;;;5.53;3.03;;;;;;;30.81;71.22;100637.94;5012893;28;67475;-42
2022/10/02 11:10:20;;;;;;;5.20;3.45;;;;;;;30.90;70.91;100636.63;5021099;28;70121;-42
2022/10/02 11:13:22;;;;;;;3.33;2.63;;;;;;;30.85;71.07;100629.16;5019271;28;67176;-42
2022/10/02 11:16:14;;;;;;;3.55;3.10;;;;;;;30.50;71.27;100566.63;5015127;28;70791;-42
2022/10/02 11:19:34;;;;;;;4.35;3.17;;;;;;;30.88;70.96;100644.13;5017557;28;67079;-42
2022/10/02 11:22:21;;;;;;;2.85;2.65;;;;;;;30.91;71.49;100633.66;4968263;28;70584;-42
2022/10/02 11:25:13;;;;;;;3.78;3.13;;;;;;;30.84;71.74;100643.75;5015737;28;67061;-43
2022/10/02 11:28:04;;;;;;;4.63;3.17;;;;;;;30.90;71.59;100644.75;5022472;28;70101;-44
2022/10/02 11:30:53;;;;;;;3.47;3.17;;;;;;;30.48;71.40;100579.56;4995726;28;65857;-42
2022/10/02 11:33:47;;;;;;;2.90;2.70;;;;;;;30.88;71.55;100649.53;5011398;28;69670;-43
2022/10/02 11:36:42;;;;;;;15.23;4.00;;;;;;;30.38;71.81;100574.66;5019612;28;66440;-43
2022/10/02 11:39:45;;;;;;;6.28;3.40;;;;;;;30.80;72.58;100664.22;5007671;28;70857;-42
2022/10/02 11:42:36;;;;;;;6.45;3.25;;;;;;;30.88;72.58;100663.91;5018589;28;66836;-41
2022/10/02 11:45:28;;;;;;;6.30;3.08;;;;;;;30.84;73.18;100676.25;5008460;28;70963;-40
2022/10/02 11:48:37;;;;;;;4.87;2.80;;;;;;;30.24;73.32;100565.84;5015487;28;65947;-42
2022/10/02 11:51:34;;;;;;;4.38;3.30;;;;;;;30.87;73.53;100669.53;5020289;28;70916;-41
2022/10/02 11:54:18;;;;;;;8.43;3.88;;;;;;;30.96;74.13;100670.91;5018281;28;67273;-42
2022/10/02 11:57:22;;;;;;;4.38;3.55;;;;;;;30.96;73.28;100679.03;5019034;28;70754;-42
2022/10/02 12:00:07;;;;;;;3.63;3.33;;;;;;;30.99;73.44;100684.00;5017900;28;66540;-42
2022/10/02 12:03:11;;;;;;;5.88;3.20;;;;;;;31.02;73.72;100683.53;5013164;28;70911;-42
2022/10/02 12:05:59;;;;;;;;;;;;;;;30.70;74.34;100694.50;5012229;28;67074;-41
2022/10/02 12:08:43;;;;;;;5.88;3.28;;;;;;;30.97;73.83;100710.47;5010556;28;70346;-41
2022/10/02 12:11:33;;;;;;;3.85;3.13;;;;;;;30.99;73.79;100716.50;5006366;28;66102;-41
2022/10/02 12:14:27;;;;;;;3.25;2.95;;;;;;;30.94;73.97;100724.47;5010892;28;70875;-42
2022/10/02 12:17:23;;;;;;;3.78;3.08;;;;;;;30.60;74.25;100680.63;5024277;28;66259;-41
2022/10/02 12:27:08;;;;;;;5.53;3.20;;;;;;;30.96;74.71;100746.75;5017581;28;69981;-41
2022/10/02 12:30:02;;;;;;;11.40;3.33;;;;;;;30.95;75.63;100761.34;5017524;28;66701;-39
2022/10/02 12:33:02;;;;;;;11.68;4.03;;;;;;;30.94;75.15;100746.16;5015369;28;70136;-41
2022/10/02 12:36:07;;;;;;;5.18;3.45;;;;;;;31.01;75.42;100752.34;5010373;28;67261;-42
2022/10/02 12:38:51;;;;;;;6.45;3.72;;;;;;;31.03;75.52;100762.94;5012168;28;70818;-42
2022/10/02 12:41:47;;;;;;;8.15;3.63;;;;;;;30.94;75.33;100773.22;5018069;28;66309;-42
2022/10/02 12:44:55;;;;;;;5.43;3.88;;;;;;;30.53;75.80;100701.50;5013944;28;70995;-42
2022/10/02 12:47:47;;;;;;;5.53;3.28;;;;;;;30.94;74.53;100776.75;5012549;28;66993;-43
2022/10/02 12:50:40;;;;;;;4.68;2.38;;;;;;;30.84;73.11;100783.72;5020333;28;70658;-40
2022/10/02 12:53:39;;;;;;;4.03;2.63;;;;;;;30.56;71.53;100760.63;5009011;28;66731;-40
2022/10/02 12:56:54;;;;;;;6.93;2.55;;;;;;;30.37;70.34;100785.97;5009100;28;69839;-41
2022/10/02 12:59:32;;;;;;;5.60;2.90;;;;;;;30.32;69.23;100791.22;5020747;28;67524;-41
2022/10/02 13:02:34;;;;;;;4.63;3.35;;;;;;;30.14;68.51;100795.44;5019661;28;69892;-41
2022/10/02 13:06:09;;;;;;;2.83;2.15;;;;;;;30.03;67.29;100791.59;5017521;28;66757;-40
2022/10/02 13:08:53;;;;;;;3.75;2.17;;;;;;;30.03;66.01;100798.84;5019256;28;70685;-40
2022/10/02 13:11:44;;;;;;;2.33;2.13;;;;;;;29.95;65.08;100807.19;4988077;28;67028;-41
2022/10/02 13:14:44;;;;;;;3.05;2.83;;;;;;;29.84;64.00;100804.16;5008471;28;71382;-42
2022/10/02 13:17:24;;;;;;;8.65;3.17;;;;;;;29.89;62.86;100810.78;5010367;28;67155;-41
2022/10/02 13:20:03;;;;;;;7.93;3.13;;;;;;;29.98;62.82;100817.63;5013276;28;70615;-41